sensor_id;sensor_type;location;lat;lon;timestamp;P1;durP1;ratioP1;P2;durP2;ratioP2
46086;SDS011;31824;49.648;8.640;2023-12-20T00:00:19;5.50;;;3.03;;
46086;SDS011;31824;49.648;8.640;2023-12-20T00:03:21;6.07;;;2.88;;
46086;SDS011;31824;49.648;8.640;2023-12-20T00:06:23;6.78;;;3.50;;
46086;SDS011;31824;49.648;8.640;2023-12-20T00:09:27;6.75;;;3.35;;
46086;SDS011;31824;49.648;8.640;2023-12-20T00:12:29;7.05;;;3.20;;
46086;SDS011;31824;49.648;8.640;2023-12-20T00:15:30;5.60;;;2.95;;
46086;SDS011;31824;49.648;8.640;2023-12-20T00:18:32;7.78;;;3.15;;
46086;SDS011;31824;49.648;8.640;2023-12-20T00:21:34;5.90;;;3.05;;
46086;SDS011;31824;49.648;8.640;2023-12-20T00:24:38;7.15;;;3.70;;
46086;SDS011;31824;49.648;8.640;2023-12-20T00:27:40;6.38;;;2.88;;
46086;SDS011;31824;49.648;8.640;2023-12-20T00:30:43;5.15;;;2.50;;
46086;SDS011;31824;49.648;8.640;2023-12-20T00:33:46;7.13;;;2.83;;
46086;SDS011;31824;49.648;8.640;2023-12-20T00:36:49;5.95;;;2.88;;
46086;SDS011;31824;49.648;8.640;2023-12-20T00:39:52;6.20;;;2.78;;
46086;SDS011;31824;49.648;8.640;2023-12-20T00:42:55;5.65;;;2.50;;
46086;SDS011;31824;49.648;8.640;2023-12-20T00:45:57;4.78;;;2.50;;
46086;SDS011;31824;49.648;8.640;2023-12-20T00:49:01;5.57;;;2.53;;
46086;SDS011;31824;49.648;8.640;2023-12-20T00:52:05;5.60;;;2.38;;
46086;SDS011;31824;49.648;8.640;2023-12-20T00:55:08;5.25;;;2.70;;
46086;SDS011;31824;49.648;8.640;2023-12-20T00:58:11;8.32;;;3.03;;
46086;SDS011;31824;49.648;8.640;2023-12-20T01:01:12;6.63;;;2.83;;
46086;SDS011;31824;49.648;8.640;2023-12-20T01:04:15;6.25;;;2.35;;
46086;SDS011;31824;49.648;8.640;2023-12-20T01:07:17;3.83;;;2.05;;
46086;SDS011;31824;49.648;8.640;2023-12-20T01:10:21;4.85;;;2.53;;
46086;SDS011;31824;49.648;8.640;2023-12-20T01:13:24;5.57;;;1.80;;
46086;SDS011;31824;49.648;8.640;2023-12-20T01:16:26;3.90;;;1.88;;
46086;SDS011;31824;49.648;8.640;2023-12-20T01:19:28;5.97;;;2.53;;
46086;SDS011;31824;49.648;8.640;2023-12-20T01:22:31;4.82;;;2.28;;
46086;SDS011;31824;49.648;8.640;2023-12-20T01:25:35;4.88;;;1.98;;
46086;SDS011;31824;49.648;8.640;2023-12-20T01:28:37;4.50;;;1.95;;
46086;SDS011;31824;49.648;8.640;2023-12-20T01:31:40;4.00;;;1.60;;
46086;SDS011;31824;49.648;8.640;2023-12-20T01:34:42;3.95;;;1.73;;
46086;SDS011;31824;49.648;8.640;2023-12-20T01:37:44;4.95;;;1.88;;
46086;SDS011;31824;49.648;8.640;2023-12-20T01:40:48;4.30;;;2.00;;
46086;SDS011;31824;49.648;8.640;2023-12-20T01:43:50;8.07;;;1.75;;
46086;SDS011;31824;49.648;8.640;2023-12-20T01:46:52;4.40;;;1.73;;
46086;SDS011;31824;49.648;8.640;2023-12-20T01:49:54;4.05;;;1.80;;
46086;SDS011;31824;49.648;8.640;2023-12-20T01:52:58;3.42;;;1.23;;
46086;SDS011;31824;49.648;8.640;2023-12-20T01:56:04;4.32;;;1.73;;
46086;SDS011;31824;49.648;8.640;2023-12-20T01:59:06;6.78;;;2.35;;
46086;SDS011;31824;49.648;8.640;2023-12-20T02:02:10;5.25;;;1.90;;
46086;SDS011;31824;49.648;8.640;2023-12-20T02:05:14;3.55;;;1.48;;
46086;SDS011;31824;49.648;8.640;2023-12-20T02:08:17;2.13;;;0.98;;
46086;SDS011;31824;49.648;8.640;2023-12-20T02:11:21;3.13;;;1.50;;
46086;SDS011;31824;49.648;8.640;2023-12-20T02:14:23;2.00;;;1.02;;
46086;SDS011;31824;49.648;8.640;2023-12-20T02:17:25;2.97;;;1.33;;
46086;SDS011;31824;49.648;8.640;2023-12-20T02:20:27;2.65;;;1.20;;
46086;SDS011;31824;49.648;8.640;2023-12-20T02:23:30;4.05;;;1.45;;
46086;SDS011;31824;49.648;8.640;2023-12-20T02:26:33;4.22;;;1.42;;
46086;SDS011;31824;49.648;8.640;2023-12-20T02:29:35;3.30;;;1.40;;
46086;SDS011;31824;49.648;8.640;2023-12-20T02:32:37;3.10;;;1.70;;
46086;SDS011;31824;49.648;8.640;2023-12-20T02:35:40;2.70;;;1.30;;
46086;SDS011;31824;49.648;8.640;2023-12-20T02:38:43;1.98;;;1.02;;
46086;SDS011;31824;49.648;8.640;2023-12-20T02:41:45;3.35;;;1.40;;
46086;SDS011;31824;49.648;8.640;2023-12-20T02:44:48;4.45;;;1.15;;
46086;SDS011;31824;49.648;8.640;2023-12-20T02:47:50;3.42;;;1.52;;
46086;SDS011;31824;49.648;8.640;2023-12-20T02:50:52;3.13;;;1.63;;
46086;SDS011;31824;49.648;8.640;2023-12-20T02:53:55;5.63;;;1.45;;
46086;SDS011;31824;49.648;8.640;2023-12-20T02:56:57;2.10;;;1.00;;
46086;SDS011;31824;49.648;8.640;2023-12-20T02:59:58;3.25;;;1.48;;
46086;SDS011;31824;49.648;8.640;2023-12-20T03:03:00;2.88;;;1.30;;
46086;SDS011;31824;49.648;8.640;2023-12-20T03:06:02;3.47;;;1.38;;
46086;SDS011;31824;49.648;8.640;2023-12-20T03:09:06;3.35;;;1.38;;
46086;SDS011;31824;49.648;8.640;2023-12-20T03:12:08;2.08;;;1.00;;
46086;SDS011;31824;49.648;8.640;2023-12-20T03:15:10;3.55;;;1.38;;
46086;SDS011;31824;49.648;8.640;2023-12-20T03:18:12;2.25;;;1.10;;
46086;SDS011;31824;49.648;8.640;2023-12-20T03:21:14;4.57;;;1.50;;
46086;SDS011;31824;49.648;8.640;2023-12-20T03:24:18;4.55;;;1.42;;
46086;SDS011;31824;49.648;8.640;2023-12-20T03:27:20;3.00;;;0.90;;
46086;SDS011;31824;49.648;8.640;2023-12-20T03:30:21;2.92;;;1.30;;
46086;SDS011;31824;49.648;8.640;2023-12-20T03:33:23;1.75;;;1.00;;
46086;SDS011;31824;49.648;8.640;2023-12-20T03:36:25;2.83;;;1.33;;
46086;SDS011;31824;49.648;8.640;2023-12-20T03:39:29;3.38;;;1.27;;
46086;SDS011;31824;49.648;8.640;2023-12-20T03:42:31;2.20;;;1.10;;
46086;SDS011;31824;49.648;8.640;2023-12-20T03:45:33;2.22;;;1.15;;
46086;SDS011;31824;49.648;8.640;2023-12-20T03:48:35;5.22;;;1.60;;
46086;SDS011;31824;49.648;8.640;2023-12-20T03:51:37;2.90;;;1.33;;
46086;SDS011;31824;49.648;8.640;2023-12-20T03:54:40;2.83;;;1.17;;
46086;SDS011;31824;49.648;8.640;2023-12-20T03:57:44;4.03;;;1.33;;
46086;SDS011;31824;49.648;8.640;2023-12-20T04:00:47;3.58;;;1.40;;
46086;SDS011;31824;49.648;8.640;2023-12-20T04:03:49;3.38;;;1.60;;
46086;SDS011;31824;49.648;8.640;2023-12-20T04:06:51;2.45;;;1.30;;
46086;SDS011;31824;49.648;8.640;2023-12-20T04:09:54;3.17;;;1.10;;
46086;SDS011;31824;49.648;8.640;2023-12-20T04:12:56;2.67;;;1.23;;
46086;SDS011;31824;49.648;8.640;2023-12-20T04:15:58;3.47;;;1.55;;
46086;SDS011;31824;49.648;8.640;2023-12-20T04:19:00;4.85;;;1.52;;
46086;SDS011;31824;49.648;8.640;2023-12-20T04:22:03;3.63;;;1.60;;
46086;SDS011;31824;49.648;8.640;2023-12-20T04:25:06;2.92;;;1.05;;
46086;SDS011;31824;49.648;8.640;2023-12-20T04:28:09;3.38;;;1.67;;
46086;SDS011;31824;49.648;8.640;2023-12-20T04:31:11;4.00;;;1.42;;
46086;SDS011;31824;49.648;8.640;2023-12-20T04:34:13;3.35;;;1.50;;
46086;SDS011;31824;49.648;8.640;2023-12-20T04:37:15;3.05;;;1.48;;
46086;SDS011;31824;49.648;8.640;2023-12-20T04:40:18;2.60;;;1.25;;
46086;SDS011;31824;49.648;8.640;2023-12-20T04:43:20;4.63;;;2.20;;
46086;SDS011;31824;49.648;8.640;2023-12-20T04:46:22;3.85;;;1.40;;
46086;SDS011;31824;49.648;8.640;2023-12-20T04:49:25;3.70;;;1.27;;
46086;SDS011;31824;49.648;8.640;2023-12-20T04:52:27;3.92;;;1.65;;
46086;SDS011;31824;49.648;8.640;2023-12-20T04:55:31;2.85;;;1.23;;
46086;SDS011;31824;49.648;8.640;2023-12-20T04:58:33;3.55;;;1.42;;
46086;SDS011;31824;49.648;8.640;2023-12-20T05:01:35;4.72;;;1.70;;
46086;SDS011;31824;49.648;8.640;2023-12-20T05:04:38;3.38;;;1.48;;
46086;SDS011;31824;49.648;8.640;2023-12-20T05:07:40;2.42;;;1.33;;
46086;SDS011;31824;49.648;8.640;2023-12-20T05:10:43;3.03;;;1.52;;
46086;SDS011;31824;49.648;8.640;2023-12-20T05:13:45;4.05;;;1.77;;
46086;SDS011;31824;49.648;8.640;2023-12-20T05:16:51;3.33;;;1.40;;
46086;SDS011;31824;49.648;8.640;2023-12-20T05:19:53;2.67;;;1.25;;
46086;SDS011;31824;49.648;8.640;2023-12-20T05:22:55;4.75;;;1.90;;
46086;SDS011;31824;49.648;8.640;2023-12-20T05:25:58;3.13;;;1.00;;
46086;SDS011;31824;49.648;8.640;2023-12-20T05:29:00;4.07;;;1.85;;
46086;SDS011;31824;49.648;8.640;2023-12-20T05:32:02;4.05;;;1.73;;
46086;SDS011;31824;49.648;8.640;2023-12-20T05:35:06;3.17;;;1.35;;
46086;SDS011;31824;49.648;8.640;2023-12-20T05:38:09;3.10;;;1.35;;
46086;SDS011;31824;49.648;8.640;2023-12-20T05:41:15;4.82;;;1.20;;
46086;SDS011;31824;49.648;8.640;2023-12-20T05:44:18;5.05;;;1.10;;
46086;SDS011;31824;49.648;8.640;2023-12-20T05:47:20;3.13;;;1.33;;
46086;SDS011;31824;49.648;8.640;2023-12-20T05:50:22;1.90;;;1.00;;
46086;SDS011;31824;49.648;8.640;2023-12-20T05:53:24;2.15;;;0.95;;
46086;SDS011;31824;49.648;8.640;2023-12-20T05:56:28;2.35;;;1.10;;
46086;SDS011;31824;49.648;8.640;2023-12-20T05:59:29;0.50;;;0.10;;
46086;SDS011;31824;49.648;8.640;2023-12-20T06:02:32;3.55;;;1.50;;
46086;SDS011;31824;49.648;8.640;2023-12-20T06:05:34;3.95;;;1.45;;
46086;SDS011;31824;49.648;8.640;2023-12-20T06:08:36;4.68;;;2.20;;
46086;SDS011;31824;49.648;8.640;2023-12-20T06:11:40;4.20;;;1.83;;
46086;SDS011;31824;49.648;8.640;2023-12-20T06:14:42;9.68;;;1.92;;
46086;SDS011;31824;49.648;8.640;2023-12-20T06:17:44;2.55;;;1.15;;
46086;SDS011;31824;49.648;8.640;2023-12-20T06:20:46;2.78;;;1.38;;
46086;SDS011;31824;49.648;8.640;2023-12-20T06:23:48;5.57;;;1.80;;
46086;SDS011;31824;49.648;8.640;2023-12-20T06:26:51;3.35;;;1.88;;
46086;SDS011;31824;49.648;8.640;2023-12-20T06:29:54;5.65;;;2.03;;
46086;SDS011;31824;49.648;8.640;2023-12-20T06:32:56;5.30;;;1.50;;
46086;SDS011;31824;49.648;8.640;2023-12-20T06:35:59;4.32;;;1.70;;
46086;SDS011;31824;49.648;8.640;2023-12-20T06:39:01;4.25;;;1.73;;
46086;SDS011;31824;49.648;8.640;2023-12-20T06:42:05;3.42;;;1.77;;
46086;SDS011;31824;49.648;8.640;2023-12-20T06:45:07;3.90;;;2.03;;
46086;SDS011;31824;49.648;8.640;2023-12-20T06:48:09;2.72;;;1.30;;
46086;SDS011;31824;49.648;8.640;2023-12-20T06:51:14;3.78;;;1.77;;
46086;SDS011;31824;49.648;8.640;2023-12-20T06:54:17;2.80;;;1.45;;
46086;SDS011;31824;49.648;8.640;2023-12-20T06:57:20;3.63;;;1.70;;
46086;SDS011;31824;49.648;8.640;2023-12-20T07:00:22;3.03;;;1.27;;
46086;SDS011;31824;49.648;8.640;2023-12-20T07:03:24;3.95;;;1.60;;
46086;SDS011;31824;49.648;8.640;2023-12-20T07:06:26;3.08;;;1.30;;
46086;SDS011;31824;49.648;8.640;2023-12-20T07:09:28;2.53;;;1.30;;
46086;SDS011;31824;49.648;8.640;2023-12-20T07:12:31;2.17;;;1.20;;
46086;SDS011;31824;49.648;8.640;2023-12-20T07:15:33;2.60;;;1.30;;
46086;SDS011;31824;49.648;8.640;2023-12-20T07:18:35;2.58;;;1.10;;
46086;SDS011;31824;49.648;8.640;2023-12-20T07:21:37;3.08;;;1.27;;
46086;SDS011;31824;49.648;8.640;2023-12-20T07:24:38;3.42;;;1.35;;
46086;SDS011;31824;49.648;8.640;2023-12-20T07:27:42;3.53;;;1.63;;
46086;SDS011;31824;49.648;8.640;2023-12-20T07:30:46;3.20;;;1.45;;
46086;SDS011;31824;49.648;8.640;2023-12-20T07:33:48;3.58;;;1.33;;
46086;SDS011;31824;49.648;8.640;2023-12-20T07:36:50;5.30;;;1.40;;
46086;SDS011;31824;49.648;8.640;2023-12-20T07:39:52;18.88;;;5.25;;
46086;SDS011;31824;49.648;8.640;2023-12-20T07:42:56;12.07;;;5.70;;
46086;SDS011;31824;49.648;8.640;2023-12-20T07:46:03;12.38;;;4.88;;
46086;SDS011;31824;49.648;8.640;2023-12-20T07:49:06;14.13;;;6.75;;
46086;SDS011;31824;49.648;8.640;2023-12-20T07:52:10;6.13;;;2.97;;
46086;SDS011;31824;49.648;8.640;2023-12-20T07:55:12;4.28;;;2.17;;
46086;SDS011;31824;49.648;8.640;2023-12-20T07:58:16;4.75;;;2.10;;
46086;SDS011;31824;49.648;8.640;2023-12-20T08:01:17;2.95;;;1.30;;
46086;SDS011;31824;49.648;8.640;2023-12-20T08:04:20;2.75;;;1.30;;
46086;SDS011;31824;49.648;8.640;2023-12-20T08:07:22;5.97;;;1.50;;
46086;SDS011;31824;49.648;8.640;2023-12-20T08:10:24;5.85;;;1.27;;
46086;SDS011;31824;49.648;8.640;2023-12-20T08:13:27;4.63;;;1.42;;
46086;SDS011;31824;49.648;8.640;2023-12-20T08:16:30;3.58;;;1.20;;
46086;SDS011;31824;49.648;8.640;2023-12-20T08:19:32;2.10;;;1.10;;
46086;SDS011;31824;49.648;8.640;2023-12-20T08:22:34;3.05;;;1.23;;
46086;SDS011;31824;49.648;8.640;2023-12-20T08:25:36;1.80;;;0.95;;
46086;SDS011;31824;49.648;8.640;2023-12-20T08:28:39;1.88;;;0.88;;
46086;SDS011;31824;49.648;8.640;2023-12-20T08:31:41;5.85;;;1.30;;
46086;SDS011;31824;49.648;8.640;2023-12-20T08:34:43;2.75;;;1.42;;
46086;SDS011;31824;49.648;8.640;2023-12-20T08:37:45;3.00;;;1.08;;
46086;SDS011;31824;49.648;8.640;2023-12-20T08:40:47;3.22;;;1.20;;
46086;SDS011;31824;49.648;8.640;2023-12-20T08:43:51;4.95;;;1.17;;
46086;SDS011;31824;49.648;8.640;2023-12-20T08:46:53;3.47;;;1.30;;
46086;SDS011;31824;49.648;8.640;2023-12-20T08:53:03;6.22;;;0.93;;
46086;SDS011;31824;49.648;8.640;2023-12-20T08:56:05;5.90;;;1.55;;
46086;SDS011;31824;49.648;8.640;2023-12-20T08:59:09;3.55;;;1.00;;
46086;SDS011;31824;49.648;8.640;2023-12-20T09:02:11;4.80;;;1.20;;
46086;SDS011;31824;49.648;8.640;2023-12-20T09:05:13;2.70;;;1.00;;
46086;SDS011;31824;49.648;8.640;2023-12-20T09:08:15;3.95;;;1.25;;
46086;SDS011;31824;49.648;8.640;2023-12-20T09:11:17;5.50;;;1.20;;
46086;SDS011;31824;49.648;8.640;2023-12-20T09:14:21;3.53;;;1.02;;
46086;SDS011;31824;49.648;8.640;2023-12-20T09:17:23;2.13;;;0.95;;
46086;SDS011;31824;49.648;8.640;2023-12-20T09:20:25;3.22;;;0.90;;
46086;SDS011;31824;49.648;8.640;2023-12-20T09:23:28;2.85;;;1.08;;
46086;SDS011;31824;49.648;8.640;2023-12-20T09:26:30;2.63;;;1.05;;
46086;SDS011;31824;49.648;8.640;2023-12-20T09:29:33;2.33;;;1.10;;
46086;SDS011;31824;49.648;8.640;2023-12-20T09:32:35;5.55;;;1.63;;
46086;SDS011;31824;49.648;8.640;2023-12-20T09:35:37;4.43;;;0.90;;
46086;SDS011;31824;49.648;8.640;2023-12-20T09:38:40;6.55;;;1.40;;
46086;SDS011;31824;49.648;8.640;2023-12-20T09:41:42;4.63;;;1.60;;
46086;SDS011;31824;49.648;8.640;2023-12-20T09:44:50;5.72;;;2.00;;
46086;SDS011;31824;49.648;8.640;2023-12-20T09:47:52;4.03;;;1.52;;
46086;SDS011;31824;49.648;8.640;2023-12-20T09:50:55;4.38;;;1.73;;
46086;SDS011;31824;49.648;8.640;2023-12-20T09:53:57;4.15;;;1.10;;
46086;SDS011;31824;49.648;8.640;2023-12-20T09:57:02;6.35;;;1.10;;
46086;SDS011;31824;49.648;8.640;2023-12-20T10:00:07;5.30;;;1.30;;
46086;SDS011;31824;49.648;8.640;2023-12-20T10:03:13;1.63;;;0.68;;
46086;SDS011;31824;49.648;8.640;2023-12-20T10:06:19;4.85;;;0.82;;
46086;SDS011;31824;49.648;8.640;2023-12-20T10:09:21;2.78;;;0.98;;
46086;SDS011;31824;49.648;8.640;2023-12-20T10:12:23;4.30;;;0.82;;
46086;SDS011;31824;49.648;8.640;2023-12-20T10:15:27;4.95;;;0.98;;
46086;SDS011;31824;49.648;8.640;2023-12-20T10:18:29;0.73;;;0.30;;
46086;SDS011;31824;49.648;8.640;2023-12-20T10:21:40;2.88;;;0.77;;
46086;SDS011;31824;49.648;8.640;2023-12-20T10:24:42;2.28;;;0.90;;
46086;SDS011;31824;49.648;8.640;2023-12-20T10:27:44;8.77;;;1.13;;
46086;SDS011;31824;49.648;8.640;2023-12-20T10:30:48;2.97;;;0.90;;
46086;SDS011;31824;49.648;8.640;2023-12-20T10:33:50;2.03;;;0.80;;
46086;SDS011;31824;49.648;8.640;2023-12-20T10:36:52;2.78;;;0.60;;
46086;SDS011;31824;49.648;8.640;2023-12-20T10:39:54;2.33;;;0.70;;
46086;SDS011;31824;49.648;8.640;2023-12-20T10:43:00;2.70;;;0.30;;
46086;SDS011;31824;49.648;8.640;2023-12-20T10:46:05;6.72;;;1.05;;
46086;SDS011;31824;49.648;8.640;2023-12-20T10:49:07;0.00;;;0.00;;
46086;SDS011;31824;49.648;8.640;2023-12-20T10:52:11;2.63;;;0.90;;
46086;SDS011;31824;49.648;8.640;2023-12-20T10:55:14;2.15;;;0.65;;
46086;SDS011;31824;49.648;8.640;2023-12-20T10:58:16;6.13;;;1.15;;
46086;SDS011;31824;49.648;8.640;2023-12-20T11:01:22;2.25;;;0.85;;
46086;SDS011;31824;49.648;8.640;2023-12-20T11:04:25;1.08;;;0.20;;
46086;SDS011;31824;49.648;8.640;2023-12-20T11:07:36;5.50;;;1.20;;
46086;SDS011;31824;49.648;8.640;2023-12-20T11:10:47;0.98;;;0.32;;
46086;SDS011;31824;49.648;8.640;2023-12-20T11:13:57;3.03;;;1.27;;
46086;SDS011;31824;49.648;8.640;2023-12-20T11:17:07;1.80;;;0.52;;
46086;SDS011;31824;49.648;8.640;2023-12-20T11:20:11;3.15;;;0.95;;
46086;SDS011;31824;49.648;8.640;2023-12-20T11:23:13;0.98;;;0.35;;
46086;SDS011;31824;49.648;8.640;2023-12-20T11:26:17;7.70;;;1.23;;
46086;SDS011;31824;49.648;8.640;2023-12-20T11:29:30;2.72;;;0.57;;
46086;SDS011;31824;49.648;8.640;2023-12-20T11:32:35;0.35;;;0.20;;
46086;SDS011;31824;49.648;8.640;2023-12-20T11:35:38;3.97;;;0.98;;
46086;SDS011;31824;49.648;8.640;2023-12-20T11:38:49;6.25;;;1.20;;
46086;SDS011;31824;49.648;8.640;2023-12-20T11:41:57;1.63;;;1.00;;
46086;SDS011;31824;49.648;8.640;2023-12-20T11:44:59;5.00;;;0.80;;
46086;SDS011;31824;49.648;8.640;2023-12-20T11:48:02;6.32;;;1.13;;
46086;SDS011;31824;49.648;8.640;2023-12-20T11:51:08;2.40;;;0.73;;
46086;SDS011;31824;49.648;8.640;2023-12-20T11:54:10;1.85;;;0.55;;
46086;SDS011;31824;49.648;8.640;2023-12-20T11:57:13;3.58;;;0.90;;
46086;SDS011;31824;49.648;8.640;2023-12-20T12:00:15;2.40;;;0.70;;
46086;SDS011;31824;49.648;8.640;2023-12-20T12:03:19;1.20;;;0.38;;
46086;SDS011;31824;49.648;8.640;2023-12-20T12:06:21;1.15;;;0.68;;
46086;SDS011;31824;49.648;8.640;2023-12-20T12:09:23;5.05;;;0.77;;
46086;SDS011;31824;49.648;8.640;2023-12-20T12:12:24;6.82;;;1.73;;
46086;SDS011;31824;49.648;8.640;2023-12-20T12:15:29;3.95;;;1.05;;
46086;SDS011;31824;49.648;8.640;2023-12-20T12:18:32;1.40;;;0.47;;
46086;SDS011;31824;49.648;8.640;2023-12-20T12:21:34;4.63;;;0.50;;
46086;SDS011;31824;49.648;8.640;2023-12-20T12:24:42;3.38;;;1.20;;
46086;SDS011;31824;49.648;8.640;2023-12-20T12:27:44;4.75;;;1.13;;
46086;SDS011;31824;49.648;8.640;2023-12-20T12:30:55;6.18;;;1.05;;
46086;SDS011;31824;49.648;8.640;2023-12-20T12:37:01;1.45;;;0.63;;
46086;SDS011;31824;49.648;8.640;2023-12-20T12:40:05;1.70;;;0.80;;
46086;SDS011;31824;49.648;8.640;2023-12-20T12:43:08;4.55;;;0.88;;
46086;SDS011;31824;49.648;8.640;2023-12-20T12:46:10;4.05;;;1.33;;
46086;SDS011;31824;49.648;8.640;2023-12-20T12:49:13;2.75;;;0.95;;
46086;SDS011;31824;49.648;8.640;2023-12-20T12:52:15;8.00;;;1.65;;
46086;SDS011;31824;49.648;8.640;2023-12-20T12:55:20;5.07;;;1.17;;
46086;SDS011;31824;49.648;8.640;2023-12-20T12:58:22;1.38;;;0.60;;
46086;SDS011;31824;49.648;8.640;2023-12-20T13:01:25;4.63;;;1.33;;
46086;SDS011;31824;49.648;8.640;2023-12-20T13:04:28;1.05;;;0.80;;
46086;SDS011;31824;49.648;8.640;2023-12-20T13:07:30;3.65;;;1.30;;
46086;SDS011;31824;49.648;8.640;2023-12-20T13:10:32;3.72;;;1.15;;
46086;SDS011;31824;49.648;8.640;2023-12-20T13:13:34;1.20;;;0.47;;
46086;SDS011;31824;49.648;8.640;2023-12-20T13:16:36;2.85;;;0.88;;
46086;SDS011;31824;49.648;8.640;2023-12-20T13:19:42;5.15;;;0.88;;
46086;SDS011;31824;49.648;8.640;2023-12-20T13:22:45;1.35;;;0.50;;
46086;SDS011;31824;49.648;8.640;2023-12-20T13:25:48;4.20;;;1.10;;
46086;SDS011;31824;49.648;8.640;2023-12-20T13:28:50;2.42;;;0.73;;
46086;SDS011;31824;49.648;8.640;2023-12-20T13:31:52;1.45;;;0.65;;
46086;SDS011;31824;49.648;8.640;2023-12-20T13:34:55;3.03;;;1.35;;
46086;SDS011;31824;49.648;8.640;2023-12-20T13:37:57;2.25;;;0.80;;
46086;SDS011;31824;49.648;8.640;2023-12-20T13:40:59;3.35;;;0.80;;
46086;SDS011;31824;49.648;8.640;2023-12-20T13:44:01;3.53;;;0.35;;
46086;SDS011;31824;49.648;8.640;2023-12-20T13:47:04;3.42;;;0.40;;
46086;SDS011;31824;49.648;8.640;2023-12-20T13:50:09;5.85;;;1.13;;
46086;SDS011;31824;49.648;8.640;2023-12-20T13:53:11;6.15;;;0.77;;
46086;SDS011;31824;49.648;8.640;2023-12-20T13:56:13;3.78;;;0.95;;
46086;SDS011;31824;49.648;8.640;2023-12-20T13:59:15;0.85;;;0.35;;
46086;SDS011;31824;49.648;8.640;2023-12-20T14:02:17;2.63;;;0.63;;
46086;SDS011;31824;49.648;8.640;2023-12-20T14:05:20;5.65;;;0.82;;
46086;SDS011;31824;49.648;8.640;2023-12-20T14:08:29;2.22;;;0.68;;
46086;SDS011;31824;49.648;8.640;2023-12-20T14:11:31;1.77;;;0.70;;
46086;SDS011;31824;49.648;8.640;2023-12-20T14:14:33;3.53;;;0.70;;
46086;SDS011;31824;49.648;8.640;2023-12-20T14:17:35;2.80;;;0.63;;
46086;SDS011;31824;49.648;8.640;2023-12-20T14:20:38;2.78;;;0.70;;
46086;SDS011;31824;49.648;8.640;2023-12-20T14:23:41;3.70;;;1.10;;
46086;SDS011;31824;49.648;8.640;2023-12-20T14:26:47;2.17;;;0.77;;
46086;SDS011;31824;49.648;8.640;2023-12-20T14:29:49;4.97;;;1.27;;
46086;SDS011;31824;49.648;8.640;2023-12-20T14:32:50;5.32;;;1.27;;
46086;SDS011;31824;49.648;8.640;2023-12-20T14:35:54;0.82;;;0.35;;
46086;SDS011;31824;49.648;8.640;2023-12-20T14:38:56;9.65;;;0.80;;
46086;SDS011;31824;49.648;8.640;2023-12-20T14:41:58;1.02;;;0.55;;
46086;SDS011;31824;49.648;8.640;2023-12-20T14:45:00;2.15;;;0.60;;
46086;SDS011;31824;49.648;8.640;2023-12-20T14:48:02;3.55;;;0.70;;
46086;SDS011;31824;49.648;8.640;2023-12-20T14:51:06;1.83;;;0.68;;
46086;SDS011;31824;49.648;8.640;2023-12-20T14:54:08;3.28;;;1.20;;
46086;SDS011;31824;49.648;8.640;2023-12-20T14:57:11;6.85;;;1.92;;
46086;SDS011;31824;49.648;8.640;2023-12-20T15:00:13;5.10;;;0.95;;
46086;SDS011;31824;49.648;8.640;2023-12-20T15:03:18;8.70;;;1.80;;
46086;SDS011;31824;49.648;8.640;2023-12-20T15:06:21;4.90;;;1.15;;
46086;SDS011;31824;49.648;8.640;2023-12-20T15:09:23;1.50;;;0.65;;
46086;SDS011;31824;49.648;8.640;2023-12-20T15:12:25;5.07;;;1.10;;
46086;SDS011;31824;49.648;8.640;2023-12-20T15:15:27;1.27;;;0.52;;
46086;SDS011;31824;49.648;8.640;2023-12-20T15:18:30;2.55;;;1.00;;
46086;SDS011;31824;49.648;8.640;2023-12-20T15:21:34;3.08;;;1.08;;
46086;SDS011;31824;49.648;8.640;2023-12-20T15:24:45;4.55;;;0.95;;
46086;SDS011;31824;49.648;8.640;2023-12-20T15:27:47;2.78;;;0.90;;
46086;SDS011;31824;49.648;8.640;2023-12-20T15:30:54;5.40;;;1.52;;
46086;SDS011;31824;49.648;8.640;2023-12-20T15:33:56;3.50;;;0.45;;
46086;SDS011;31824;49.648;8.640;2023-12-20T15:36:59;2.67;;;0.77;;
46086;SDS011;31824;49.648;8.640;2023-12-20T15:40:01;2.15;;;0.70;;
46086;SDS011;31824;49.648;8.640;2023-12-20T15:46:09;4.28;;;0.80;;
46086;SDS011;31824;49.648;8.640;2023-12-20T15:49:11;2.97;;;1.00;;
46086;SDS011;31824;49.648;8.640;2023-12-20T15:52:15;1.27;;;0.77;;
46086;SDS011;31824;49.648;8.640;2023-12-20T15:55:16;3.22;;;1.00;;
46086;SDS011;31824;49.648;8.640;2023-12-20T15:58:19;6.60;;;1.65;;
46086;SDS011;31824;49.648;8.640;2023-12-20T16:01:20;11.57;;;3.78;;
46086;SDS011;31824;49.648;8.640;2023-12-20T16:04:22;4.63;;;0.70;;
46086;SDS011;31824;49.648;8.640;2023-12-20T16:07:26;1.50;;;0.60;;
46086;SDS011;31824;49.648;8.640;2023-12-20T16:10:28;3.63;;;0.70;;
46086;SDS011;31824;49.648;8.640;2023-12-20T16:13:30;5.00;;;2.10;;
46086;SDS011;31824;49.648;8.640;2023-12-20T16:16:33;3.75;;;0.93;;
46086;SDS011;31824;49.648;8.640;2023-12-20T16:19:35;1.98;;;0.60;;
46086;SDS011;31824;49.648;8.640;2023-12-20T16:22:39;1.48;;;0.40;;
46086;SDS011;31824;49.648;8.640;2023-12-20T16:25:41;1.88;;;0.82;;
46086;SDS011;31824;49.648;8.640;2023-12-20T16:28:43;6.07;;;1.05;;
46086;SDS011;31824;49.648;8.640;2023-12-20T16:31:45;3.45;;;1.08;;
46086;SDS011;31824;49.648;8.640;2023-12-20T16:34:47;6.07;;;1.20;;
46086;SDS011;31824;49.648;8.640;2023-12-20T16:37:51;1.90;;;0.80;;
46086;SDS011;31824;49.648;8.640;2023-12-20T16:40:53;5.05;;;1.25;;
46086;SDS011;31824;49.648;8.640;2023-12-20T16:43:56;3.67;;;1.38;;
46086;SDS011;31824;49.648;8.640;2023-12-20T16:46:58;5.32;;;1.83;;
46086;SDS011;31824;49.648;8.640;2023-12-20T16:50:00;4.68;;;2.05;;
46086;SDS011;31824;49.648;8.640;2023-12-20T16:53:05;3.28;;;1.58;;
46086;SDS011;31824;49.648;8.640;2023-12-20T16:56:07;3.22;;;1.10;;
46086;SDS011;31824;49.648;8.640;2023-12-20T16:59:08;3.97;;;1.73;;
46086;SDS011;31824;49.648;8.640;2023-12-20T17:02:10;3.03;;;1.10;;
46086;SDS011;31824;49.648;8.640;2023-12-20T17:05:13;5.38;;;1.10;;
46086;SDS011;31824;49.648;8.640;2023-12-20T17:08:17;7.18;;;1.30;;
46086;SDS011;31824;49.648;8.640;2023-12-20T17:11:18;4.22;;;1.65;;
46086;SDS011;31824;49.648;8.640;2023-12-20T17:14:22;5.13;;;1.60;;
46086;SDS011;31824;49.648;8.640;2023-12-20T17:17:24;3.45;;;1.20;;
46086;SDS011;31824;49.648;8.640;2023-12-20T17:20:26;6.22;;;1.52;;
46086;SDS011;31824;49.648;8.640;2023-12-20T17:23:29;4.00;;;1.73;;
46086;SDS011;31824;49.648;8.640;2023-12-20T17:26:31;3.70;;;1.30;;
46086;SDS011;31824;49.648;8.640;2023-12-20T17:29:33;4.25;;;0.90;;
46086;SDS011;31824;49.648;8.640;2023-12-20T17:32:35;6.80;;;1.70;;
46086;SDS011;31824;49.648;8.640;2023-12-20T17:35:38;4.70;;;1.83;;
46086;SDS011;31824;49.648;8.640;2023-12-20T17:38:42;7.78;;;1.83;;
46086;SDS011;31824;49.648;8.640;2023-12-20T17:41:44;4.50;;;1.65;;
46086;SDS011;31824;49.648;8.640;2023-12-20T17:44:45;4.43;;;0.90;;
46086;SDS011;31824;49.648;8.640;2023-12-20T17:47:47;6.13;;;0.98;;
46086;SDS011;31824;49.648;8.640;2023-12-20T17:50:50;3.40;;;1.40;;
46086;SDS011;31824;49.648;8.640;2023-12-20T17:53:53;4.55;;;1.65;;
46086;SDS011;31824;49.648;8.640;2023-12-20T17:56:55;6.13;;;1.50;;
46086;SDS011;31824;49.648;8.640;2023-12-20T17:59:59;3.03;;;0.95;;
46086;SDS011;31824;49.648;8.640;2023-12-20T18:03:12;4.75;;;2.05;;
46086;SDS011;31824;49.648;8.640;2023-12-20T18:06:15;5.05;;;1.48;;
46086;SDS011;31824;49.648;8.640;2023-12-20T18:09:18;6.53;;;1.50;;
46086;SDS011;31824;49.648;8.640;2023-12-20T18:12:20;11.35;;;1.58;;
46086;SDS011;31824;49.648;8.640;2023-12-20T18:15:21;4.80;;;1.73;;
46086;SDS011;31824;49.648;8.640;2023-12-20T18:18:23;4.68;;;1.05;;
46086;SDS011;31824;49.648;8.640;2023-12-20T18:21:25;3.38;;;1.02;;
46086;SDS011;31824;49.648;8.640;2023-12-20T18:24:29;7.15;;;1.13;;
46086;SDS011;31824;49.648;8.640;2023-12-20T18:27:31;3.50;;;1.13;;
46086;SDS011;31824;49.648;8.640;2023-12-20T18:30:33;8.52;;;1.10;;